createdAt,value
2016-03-30T00:00:53.389Z,4.3
2016-03-30T00:03:53.959Z,4.31
2016-03-30T00:04:28.384Z,4.45
2016-03-30T00:05:27.917Z,4.32
2016-03-30T00:10:35.369Z,4.32
2016-03-30T00:10:48.712Z,4.42
2016-03-30T00:12:54.953Z,4.4
2016-03-30T00:13:58.908Z,4.32
2016-03-30T00:15:03.410Z,4.39
2016-03-30T00:15:51.711Z,4.27
2016-03-30T00:17:12.041Z,4.48
2016-03-30T00:19:23.859Z,4.4
2016-03-30T00:20:02.847Z,4.52
2016-03-30T00:20:42.896Z,4.4
2016-03-30T00:21:43.288Z,4.36
2016-03-30T00:22:43.183Z,4.38
2016-03-30T00:23:46.138Z,4.34
2016-03-30T00:24:44.016Z,4.34
2016-03-30T00:25:43.549Z,4.38
2016-03-30T00:27:02.396Z,4.36
2016-03-30T00:28:02.649Z,4.39
2016-03-30T00:28:43.010Z,4.5
2016-03-30T00:30:02.763Z,4.5
2016-03-30T00:30:43.048Z,4.52
2016-03-30T00:31:42.940Z,4.52
2016-03-30T00:32:55.740Z,4.56
2016-03-30T00:33:43.320Z,4.56
2016-03-30T00:34:56.089Z,4.57
2016-03-30T00:35:43.123Z,4.61
2016-03-30T00:36:43.078Z,4.66
2016-03-30T00:37:56.114Z,4.64
2016-03-30T00:38:46.162Z,4.64
2016-03-30T00:39:46.181Z,4.61
2016-03-30T00:40:43.997Z,4.63
2016-03-30T00:42:04.577Z,4.64
2016-03-30T00:42:45.705Z,4.75
2016-03-30T00:43:43.769Z,4.76
2016-03-30T00:44:56.554Z,4.7
2016-03-30T00:45:44.541Z,4.82
2016-03-30T00:47:11.669Z,4.75
2016-03-30T00:47:51.171Z,4.71
2016-03-30T00:59:40.032Z,4.95
2016-03-30T01:01:05.940Z,4.94
2016-03-30T01:01:53.475Z,4.9
2016-03-30T01:02:51.071Z,4.92
2016-03-30T01:03:50.793Z,5.05
2016-03-30T01:04:53.451Z,5.02
2016-03-30T01:05:51.142Z,5.02
2016-03-30T01:07:10.032Z,5.04
2016-03-30T01:08:11.509Z,5.02
2016-03-30T01:08:51.891Z,5.05
2016-03-30T01:09:51.071Z,5.02
2016-03-30T01:10:52.235Z,5.12
2016-03-30T01:11:51.057Z,5.12
2016-03-30T01:12:52.117Z,5.12
2016-03-30T01:13:50.943Z,5.16
2016-03-30T01:14:52.380Z,5.13
2016-03-30T01:15:51.065Z,5.2
2016-03-30T01:16:51.377Z,5.25
2016-03-30T01:17:50.175Z,5.26
2016-03-30T01:18:51.301Z,5.26
2016-03-30T01:25:28.343Z,5.38
2016-03-30T01:38:09.549Z,5.33
2016-03-30T01:39:01.068Z,5.36
2016-03-30T01:40:01.180Z,5.47
2016-03-30T01:41:01.120Z,5.47
2016-03-30T01:42:01.169Z,5.52
2016-03-30T01:43:01.125Z,5.43
2016-03-30T01:44:01.393Z,5.54
2016-03-30T01:45:02.803Z,5.55
2016-03-30T01:46:26.837Z,5.52
2016-03-30T01:47:01.199Z,5.61
2016-03-30T01:51:52.150Z,5.56
2016-03-30T01:52:18.854Z,5.64
2016-03-30T01:53:18.512Z,5.7
2016-03-30T01:54:37.954Z,5.7
2016-03-30T01:55:18.736Z,5.69
2016-03-30T01:56:31.285Z,5.7
2016-03-30T01:57:28.320Z,5.83
2016-03-30T01:58:38.340Z,5.72
2016-03-30T01:59:34.967Z,5.79
2016-03-30T02:00:35.080Z,5.74
2016-03-30T02:01:41.489Z,5.79
2016-03-30T02:02:22.333Z,5.74
2016-03-30T02:03:22.320Z,5.79
2016-03-30T02:04:22.369Z,5.87
2016-03-30T02:05:22.325Z,5.84
2016-03-30T02:06:22.359Z,5.87
2016-03-30T02:07:22.221Z,5.81
2016-03-30T02:08:35.133Z,5.8
2016-03-30T02:09:22.414Z,5.87
2016-03-30T02:10:41.638Z,5.9
2016-03-30T02:11:22.419Z,5.9
2016-03-30T02:12:22.453Z,5.76
2016-03-30T02:13:22.455Z,5.83
2016-03-30T02:14:22.475Z,5.88
2016-03-30T02:15:22.540Z,5.79
2016-03-30T02:16:22.495Z,5.83
2016-03-30T02:17:35.235Z,5.8
2016-03-30T02:18:35.269Z,5.8
2016-03-30T02:19:22.535Z,5.79
2016-03-30T02:20:22.569Z,5.84
2016-03-30T02:21:22.587Z,5.76
2016-03-30T02:22:22.605Z,5.8
2016-03-30T02:23:22.608Z,5.73
2016-03-30T02:24:22.657Z,5.69
2016-03-30T02:25:23.238Z,5.8
2016-03-30T02:26:22.679Z,5.73
2016-03-30T02:27:23.291Z,5.8
2016-03-30T02:28:22.715Z,5.74
2016-03-30T02:29:35.437Z,5.73
2016-03-30T02:30:28.987Z,5.73
2016-03-30T02:31:22.724Z,5.67
2016-03-30T02:32:23.382Z,5.77
2016-03-30T02:33:22.776Z,5.69
2016-03-30T02:34:22.794Z,5.64
2016-03-30T02:35:22.812Z,5.69
2016-03-30T02:36:29.300Z,5.69
2016-03-30T02:37:22.959Z,5.62
2016-03-30T02:38:42.073Z,5.67
2016-03-30T02:39:29.136Z,5.64
2016-03-30T02:40:42.094Z,5.64
2016-03-30T02:41:29.172Z,5.67
2016-03-30T02:42:48.584Z,5.59
2016-03-30T02:43:23.116Z,5.67
2016-03-30T02:44:22.946Z,5.62
2016-03-30T02:45:29.230Z,5.62
2016-03-30T02:46:23.186Z,5.69
2016-03-30T02:47:35.751Z,5.64
2016-03-30T02:48:23.019Z,5.64
2016-03-30T02:49:23.006Z,5.74
2016-03-30T02:50:23.041Z,5.72
2016-03-30T02:51:23.246Z,5.65
2016-03-30T02:52:23.077Z,5.72
2016-03-30T02:53:23.111Z,5.72
2016-03-30T02:54:29.363Z,5.76
2016-03-30T02:55:29.413Z,5.76
2016-03-30T02:56:23.151Z,5.77
2016-03-30T02:57:42.356Z,5.8
2016-03-30T02:58:23.188Z,5.8
2016-03-30T02:59:23.174Z,5.84
2016-03-30T03:00:23.223Z,5.77
2016-03-30T03:01:23.242Z,5.79
2016-03-30T03:02:23.245Z,5.87
2016-03-30T03:03:23.278Z,5.81
2016-03-30T03:04:23.297Z,5.81
2016-03-30T03:05:29.565Z,5.83
2016-03-30T03:06:36.021Z,5.88
2016-03-30T03:07:36.055Z,5.88
2016-03-30T03:08:42.589Z,5.88
2016-03-30T03:09:39.248Z,5.87
2016-03-30T03:10:52.159Z,5.84
2016-03-30T03:12:26.506Z,5.88
2016-03-30T03:13:26.508Z,5.97
2016-03-30T03:14:26.667Z,5.95
2016-03-30T03:15:39.295Z,5.92
2016-03-30T03:16:26.564Z,5.94
2016-03-30T03:17:45.817Z,5.97
2016-03-30T03:18:39.336Z,5.92
2016-03-30T03:19:26.618Z,5.92
2016-03-30T03:20:45.934Z,6.01
2016-03-30T03:21:39.375Z,5.98
2016-03-30T03:22:52.364Z,5.99
2016-03-30T03:23:39.411Z,5.94
2016-03-30T03:24:26.727Z,5.94
2016-03-30T03:25:40.041Z,5.97
2016-03-30T03:26:39.466Z,5.94
2016-03-30T03:27:27.344Z,5.97
2016-03-30T03:28:46.065Z,5.97
2016-03-30T03:29:29.974Z,5.99
2016-03-30T03:30:30.008Z,6.06
2016-03-30T03:31:30.010Z,5.99
2016-03-30T03:32:30.215Z,6.02
2016-03-30T03:33:42.796Z,6.02
2016-03-30T03:34:42.784Z,6.06
2016-03-30T03:35:55.758Z,6.05
2016-03-30T03:36:49.429Z,6.05
2016-03-30T03:38:07.685Z,6.07
2016-03-30T03:39:04.642Z,6.12
2016-03-30T03:40:17.410Z,6.1
2016-03-30T03:41:30.350Z,6.1
2016-03-30T03:42:23.946Z,6.1
2016-03-30T03:43:39.120Z,6.06
2016-03-30T03:45:43.533Z,6.06
2016-03-30T03:46:17.753Z,6.13
2016-03-30T03:48:45.853Z,6.1
2016-03-30T03:49:45.872Z,6.1
2016-03-30T03:50:52.156Z,6.2
2016-03-30T03:51:46.517Z,6.17
2016-03-30T03:52:46.005Z,6.1
2016-03-30T03:53:47.225Z,6.1
2016-03-30T03:54:48.228Z,6.05
2016-03-30T03:56:05.937Z,5.99
2016-03-30T03:56:47.296Z,6.05
2016-03-30T03:58:43.270Z,6.07
2016-03-30T03:59:15.335Z,6.13
2016-03-30T04:00:59.232Z,6.06
2016-03-30T04:01:59.484Z,6.09
2016-03-30T04:03:25.237Z,6.12
2016-03-30T04:04:40.490Z,6.06
2016-03-30T04:05:28.664Z,6.12
2016-03-30T04:06:09.745Z,6.13
2016-03-30T04:07:15.498Z,6.1
2016-03-30T04:08:09.298Z,6.12
2016-03-30T04:09:15.862Z,6.06
2016-03-30T04:10:09.365Z,6.12
2016-03-30T04:11:28.774Z,6.13
2016-03-30T04:12:09.558Z,6.12
2016-03-30T04:13:40.686Z,6.16
2016-03-30T04:14:19.406Z,6.1
2016-03-30T04:16:35.616Z,6.09
2016-03-30T04:17:35.649Z,6.12
2016-03-30T04:19:01.795Z,6.12
2016-03-30T04:19:48.608Z,6.1
2016-03-30T04:20:35.673Z,6.07
2016-03-30T04:22:01.320Z,6.02
2016-03-30T04:22:45.242Z,6.05
2016-03-30T04:24:10.934Z,6.1
2016-03-30T04:24:45.544Z,6.15
2016-03-30T04:26:11.174Z,6.13
2016-03-30T04:27:27.036Z,6.01
2016-03-30T04:28:14.617Z,6.15
2016-03-30T04:28:58.511Z,6.16
2016-03-30T04:30:18.091Z,6.12
2016-03-30T04:31:33.313Z,6.22
2016-03-30T04:33:42.818Z,6.19
2016-03-30T04:34:49.040Z,6.17
2016-03-30T04:35:55.779Z,6.16
2016-03-30T04:37:02.001Z,6.16
2016-03-30T04:38:08.628Z,6.15
2016-03-30T04:39:45.428Z,6.25
2016-03-30T04:40:23.961Z,6.26
2016-03-30T04:41:23.933Z,6.15
2016-03-30T04:42:24.092Z,6.17
2016-03-30T04:43:36.719Z,6.12
2016-03-30T04:44:23.988Z,6.17
2016-03-30T04:45:43.272Z,6.15
2016-03-30T04:46:36.868Z,6.12
2016-03-30T04:47:50.153Z,5.99
2016-03-30T04:48:24.109Z,6.05
2016-03-30T04:49:56.786Z,5.94
2016-03-30T04:50:35.145Z,5.97
2016-03-30T04:52:00.869Z,5.94
2016-03-30T04:52:39.119Z,5.94
2016-03-30T04:55:13.955Z,5.99
2016-03-30T04:55:57.910Z,6.12
2016-03-30T04:58:10.541Z,6.12
2016-03-30T04:59:10.606Z,6.09
2016-03-30T05:00:10.594Z,6.12
2016-03-30T05:01:10.643Z,6.12
2016-03-30T05:02:10.599Z,6.01
2016-03-30T05:03:10.664Z,6.05
2016-03-30T05:04:10.635Z,6.02
2016-03-30T05:05:10.654Z,6.07
2016-03-30T05:06:13.812Z,6.13
2016-03-30T05:07:10.674Z,6.15
2016-03-30T05:08:30.146Z,6.07
2016-03-30T05:09:39.665Z,6.12
2016-03-30T05:10:33.324Z,6.12
2016-03-30T05:11:46.014Z,6.09
2016-03-30T05:12:26.829Z,6.07
2016-03-30T05:13:52.520Z,6.02
2016-03-30T05:14:26.882Z,6.05
2016-03-30T05:17:07.826Z,5.98
2016-03-30T05:17:42.139Z,6.1
2016-03-30T05:18:43.079Z,6.1
2016-03-30T05:19:42.160Z,6.1
2016-03-30T05:21:13.509Z,6.13
2016-03-30T05:21:51.291Z,6.15
2016-03-30T05:23:23.421Z,6.12
2016-03-30T05:24:04.564Z,6.1
2016-03-30T05:25:23.770Z,6.1
2016-03-30T05:26:04.601Z,6.12
2016-03-30T05:26:51.883Z,6.1
2016-03-30T05:28:04.638Z,6.22
2016-03-30T05:28:51.919Z,6.15
2016-03-30T05:30:17.955Z,6.15
2016-03-30T05:30:59.489Z,6.19
2016-03-30T05:32:53.463Z,6.22
2016-03-30T05:33:06.119Z,6.25
2016-03-30T05:34:57.453Z,6.35
2016-03-30T05:35:22.812Z,6.41
2016-03-30T05:37:32.192Z,6.36
2016-03-30T05:38:32.195Z,6.35
2016-03-30T05:39:38.682Z,6.36
2016-03-30T05:40:38.654Z,6.41
2016-03-30T05:41:45.016Z,6.34
2016-03-30T05:42:32.285Z,6.39
2016-03-30T05:43:51.693Z,6.41
2016-03-30T05:44:38.618Z,6.35
2016-03-30T05:46:06.154Z,6.53
2016-03-30T05:47:14.017Z,6.47
2016-03-30T05:47:35.611Z,6.53
2016-03-30T05:49:20.537Z,6.54
2016-03-30T05:49:48.850Z,6.56
2016-03-30T05:50:58.792Z,6.57
2016-03-30T05:51:58.609Z,6.62
2016-03-30T05:53:17.205Z,6.6
2016-03-30T05:54:07.458Z,6.75
2016-03-30T05:57:07.778Z,6.86
2016-03-30T05:59:43.080Z,6.9
2016-03-30T06:00:17.458Z,7.04
2016-03-30T06:01:48.711Z,7.03
2016-03-30T06:02:26.994Z,7.05
2016-03-30T06:03:27.107Z,7.05
2016-03-30T06:04:39.765Z,7.19
2016-03-30T06:05:27.049Z,7.19
2016-03-30T06:06:27.068Z,7.22
2016-03-30T06:07:27.071Z,7.41
2016-03-30T06:08:27.105Z,7.43
2016-03-30T06:09:27.138Z,7.37
2016-03-30T06:10:27.235Z,7.33
2016-03-30T06:11:27.176Z,7.32
2016-03-30T06:12:27.271Z,7.4
2016-03-30T06:13:27.196Z,7.36
2016-03-30T06:14:39.933Z,7.26
2016-03-30T06:15:27.857Z,7.36
2016-03-30T06:16:27.235Z,7.36
2016-03-30T06:17:27.269Z,7.43
2016-03-30T06:18:27.256Z,7.48
2016-03-30T06:19:40.258Z,7.51
2016-03-30T06:20:40.042Z,7.51
2016-03-30T06:21:46.514Z,7.55
2016-03-30T06:22:40.125Z,7.46
2016-03-30T06:23:58.741Z,7.53
2016-03-30T06:24:56.197Z,7.58
2016-03-30T06:26:08.294Z,7.77
2016-03-30T06:26:37.028Z,7.91
2016-03-30T06:27:37.109Z,8.05
2016-03-30T06:28:37.033Z,8.23
2016-03-30T06:29:38.474Z,8.35
2016-03-30T06:30:49.804Z,8.41
2016-03-30T06:31:37.104Z,8.53
2016-03-30T06:32:56.312Z,9.05
2016-03-30T06:33:43.999Z,9.13
2016-03-30T06:36:05.993Z,9.05
2016-03-30T06:37:06.011Z,8.86
2016-03-30T06:38:18.779Z,8.77
2016-03-30T06:39:06.047Z,8.57
2016-03-30T06:40:06.081Z,8.49
2016-03-30T06:41:06.099Z,8.38
2016-03-30T06:42:06.102Z,8.34
2016-03-30T06:43:06.729Z,8.41
2016-03-30T06:44:18.873Z,8.18
2016-03-30T06:45:18.922Z,8.27
2016-03-30T06:46:31.848Z,8.18
2016-03-30T06:47:19.037Z,8.18
2016-03-30T06:48:38.321Z,8.03
2016-03-30T06:49:28.574Z,8.08
2016-03-30T06:50:47.170Z,7.87
2016-03-30T06:51:16.111Z,7.83
2016-03-30T06:52:15.925Z,7.98
2016-03-30T06:53:15.913Z,8.06
2016-03-30T06:54:17.369Z,8.17
2016-03-30T06:55:23.636Z,8.21
2016-03-30T06:56:15.983Z,8.35
2016-03-30T06:57:16.002Z,8.23
2016-03-30T06:58:22.269Z,8.31
2016-03-30T06:59:16.164Z,8.35
2016-03-30T07:00:15.916Z,8.42
2016-03-30T07:01:17.513Z,8.39
2016-03-30T07:02:16.078Z,8.38
2016-03-30T07:03:35.283Z,8.39
2016-03-30T07:04:22.552Z,8.44
2016-03-30T07:05:41.836Z,8.59
2016-03-30T07:06:28.760Z,8.49
2016-03-30T07:07:38.654Z,8.6
2016-03-30T07:08:45.000Z,8.64
2016-03-30T07:09:25.785Z,8.68
2016-03-30T07:10:25.788Z,8.69
2016-03-30T07:11:32.087Z,8.71
2016-03-30T07:12:26.136Z,8.74
2016-03-30T07:13:41.968Z,8.93
2016-03-30T07:14:29.252Z,9.13
2016-03-30T07:15:54.974Z,9.52
2016-03-30T07:16:29.929Z,9.44
2016-03-30T07:17:29.307Z,9.63
2016-03-30T07:18:29.294Z,9.97
2016-03-30T07:19:29.327Z,10.1
2016-03-30T07:20:29.362Z,9.88
2016-03-30T07:21:29.442Z,9.95
2016-03-30T07:22:29.382Z,10.25
2016-03-30T07:23:48.604Z,11.08
2016-03-30T07:24:32.481Z,11.31
2016-03-30T07:25:32.703Z,11
2016-03-30T07:26:32.518Z,11.37
2016-03-30T07:27:32.537Z,11.91
2016-03-30T07:28:32.634Z,11.74
2016-03-30T07:29:32.589Z,12.12
2016-03-30T07:30:32.607Z,12.9
2016-03-30T07:31:32.595Z,13.02
2016-03-30T07:32:32.644Z,13.01
2016-03-30T07:33:32.662Z,13.16
2016-03-30T07:34:32.680Z,12.99
2016-03-30T07:35:32.683Z,12.69
2016-03-30T07:36:32.733Z,12
2016-03-30T07:37:45.486Z,11.58
2016-03-30T07:38:39.207Z,11.65
2016-03-30T07:39:32.772Z,11.59
2016-03-30T07:40:45.525Z,11.71
2016-03-30T07:41:32.949Z,12.68
2016-03-30T07:42:32.889Z,12.8
2016-03-30T07:43:33.267Z,12.81
2016-03-30T07:44:32.895Z,12.75
2016-03-30T07:45:33.086Z,12.32
2016-03-30T07:46:32.932Z,12.02
2016-03-30T07:47:40.200Z,11.68
2016-03-30T07:48:32.983Z,11.34
2016-03-30T07:49:52.236Z,10.76
2016-03-30T07:50:33.271Z,10.64
2016-03-30T07:51:33.008Z,10.76
2016-03-30T07:52:42.604Z,11.01
2016-03-30T07:53:42.621Z,10.98
2016-03-30T07:54:43.093Z,10.95
2016-03-30T07:55:55.424Z,10.86
2016-03-30T07:56:42.724Z,10.71
2016-03-30T07:58:08.073Z,10.58
2016-03-30T07:58:54.979Z,10.48
2016-03-30T07:59:52.217Z,10.55
2016-03-30T08:01:04.722Z,10.65
2016-03-30T08:01:52.112Z,10.72
2016-03-30T08:02:52.021Z,10.75
2016-03-30T08:03:52.024Z,10.75
2016-03-30T08:04:52.640Z,10.83
2016-03-30T08:06:04.896Z,10.95
2016-03-30T08:07:05.047Z,10.97
2016-03-30T08:08:04.691Z,10.97
2016-03-30T08:09:11.920Z,10.82
2016-03-30T08:10:11.415Z,10.77
2016-03-30T08:11:24.903Z,10.77
2016-03-30T08:11:56.950Z,10.75
2016-03-30T08:14:12.114Z,10.68
2016-03-30T08:15:12.101Z,10.65
2016-03-30T08:16:12.385Z,10.82
2016-03-30T08:17:13.623Z,10.77
2016-03-30T08:18:12.297Z,10.77
2016-03-30T08:19:12.175Z,10.69
2016-03-30T08:20:24.958Z,10.82
2016-03-30T08:21:24.961Z,10.77
2016-03-30T08:22:37.917Z,10.72
2016-03-30T08:23:25.044Z,10.79
2016-03-30T08:24:12.564Z,10.75
2016-03-30T08:25:38.191Z,10.69
2016-03-30T08:26:13.069Z,10.75
2016-03-30T08:28:21.980Z,10.92
2016-03-30T08:29:22.030Z,10.64
2016-03-30T08:30:28.345Z,10.65
2016-03-30T08:31:22.083Z,10.76
2016-03-30T08:32:34.820Z,10.89
2016-03-30T08:33:22.135Z,11.1
2016-03-30T08:34:22.153Z,11.26
2016-03-30T08:35:22.131Z,11.31
2016-03-30T08:36:23.555Z,11.12
2016-03-30T08:37:22.214Z,10.98
2016-03-30T08:38:41.389Z,11.01
2016-03-30T08:39:22.203Z,10.89
2016-03-30T08:40:22.222Z,10.89
2016-03-30T08:41:22.240Z,10.82
2016-03-30T08:42:22.305Z,10.72
2016-03-30T08:43:35.043Z,10.75
2016-03-30T08:44:22.474Z,10.64
2016-03-30T08:45:22.336Z,10.65
2016-03-30T08:46:22.370Z,10.57
2016-03-30T08:47:23.779Z,10.49
2016-03-30T08:48:22.407Z,10.39
2016-03-30T08:49:22.409Z,10.38
2016-03-30T08:50:22.412Z,10.36
2016-03-30T08:51:22.446Z,10.23
2016-03-30T08:52:35.199Z,10.18
2016-03-30T08:53:22.481Z,10.31
2016-03-30T08:54:41.720Z,10.41
2016-03-30T08:55:41.739Z,10.39
2016-03-30T08:56:25.632Z,10.48
2016-03-30T08:57:25.634Z,10.65
2016-03-30T08:58:25.652Z,10.77
2016-03-30T08:59:25.672Z,10.79
2016-03-30T09:00:26.314Z,10.79
2016-03-30T09:01:38.442Z,10.79
2016-03-30T09:02:38.475Z,10.69
2016-03-30T09:03:25.725Z,10.55
2016-03-30T09:04:25.807Z,10.38
2016-03-30T09:05:25.810Z,10.27
2016-03-30T09:06:25.969Z,10.31
2016-03-30T09:07:38.552Z,10.34
2016-03-30T09:08:26.146Z,10.46
2016-03-30T09:09:25.882Z,10.76
2016-03-30T09:10:32.183Z,10.86
2016-03-30T09:11:25.904Z,11.15
2016-03-30T09:12:38.675Z,11.53
2016-03-30T09:13:26.550Z,11.76
2016-03-30T09:14:25.960Z,11.81
2016-03-30T09:15:25.993Z,11.95
2016-03-30T09:16:26.011Z,12.08
2016-03-30T09:17:38.751Z,12.14
2016-03-30T09:18:32.313Z,11.95
2016-03-30T09:19:45.271Z,11.81
2016-03-30T09:20:29.146Z,11.76
2016-03-30T09:21:48.387Z,11.71
2016-03-30T09:22:29.184Z,11.59
2016-03-30T09:23:54.892Z,11.48
2016-03-30T09:24:38.800Z,11.62
2016-03-30T09:25:38.819Z,11.55
2016-03-30T09:26:51.573Z,11.56
2016-03-30T09:27:38.856Z,11.58
2016-03-30T09:28:39.108Z,11.53
2016-03-30T09:29:39.142Z,11.73
2016-03-30T09:30:39.145Z,11.8
2016-03-30T09:31:38.961Z,11.85
2016-03-30T09:32:45.244Z,11.73
2016-03-30T09:33:38.981Z,11.56
2016-03-30T09:34:51.766Z,11.38
2016-03-30T09:35:39.034Z,11.58
2016-03-30T09:37:04.739Z,11.97
2016-03-30T09:37:55.774Z,12.15
2016-03-30T09:39:39.529Z,12.73
2016-03-30T09:40:11.763Z,12.93
2016-03-30T09:40:52.250Z,13.17
2016-03-30T09:43:27.505Z,13.55
2016-03-30T09:44:01.868Z,13.62
2016-03-30T09:46:17.279Z,13.45
2016-03-30T09:47:17.048Z,13.17
2016-03-30T09:48:29.847Z,13.16
2016-03-30T09:49:17.084Z,13.05
2016-03-30T09:50:36.309Z,13.24
2016-03-30T09:51:16.980Z,13.2
2016-03-30T09:53:14.345Z,13.19
2016-03-30T09:53:29.970Z,13.17
2016-03-30T09:54:27.004Z,13.01
2016-03-30T09:55:33.288Z,12.87
2016-03-30T09:56:33.259Z,12.78
2016-03-30T09:57:46.218Z,12.73
2016-03-30T09:58:27.093Z,12.76
2016-03-30T09:59:58.379Z,12.72
2016-03-30T10:00:33.348Z,12.81
2016-03-30T10:03:07.997Z,13.33
2016-03-30T10:03:42.375Z,13.47
2016-03-30T10:04:42.392Z,13.67
2016-03-30T10:06:01.724Z,13.82
2016-03-30T10:06:42.430Z,13.98
2016-03-30T10:07:55.151Z,14.01
2016-03-30T10:08:48.701Z,13.97
2016-03-30T10:10:08.156Z,13.94
2016-03-30T10:11:01.705Z,13.97
2016-03-30T10:12:10.615Z,13.86
2016-03-30T10:12:44.958Z,13.6
2016-03-30T10:13:44.967Z,13.47
2016-03-30T10:14:44.975Z,13.47
2016-03-30T10:15:45.061Z,13.61
2016-03-30T10:16:57.755Z,13.71
2016-03-30T10:17:45.032Z,13.75
2016-03-30T10:19:10.733Z,13.7
2016-03-30T10:19:48.998Z,13.68
2016-03-30T10:20:49.012Z,13.62
2016-03-30T10:21:55.261Z,13.47
2016-03-30T10:22:55.307Z,13.27
2016-03-30T10:24:01.809Z,13.24
2016-03-30T10:25:01.857Z,13.2
2016-03-30T10:26:08.311Z,13.02
2016-03-30T10:27:14.828Z,12.93
2016-03-30T10:28:18.736Z,12.94
2016-03-30T10:29:50.084Z,12.88
2016-03-30T10:30:34.005Z,12.91
2016-03-30T10:33:09.309Z,12.73
2016-03-30T10:34:40.611Z,12.73
2016-03-30T10:35:12.424Z,12.81
2016-03-30T10:37:15.039Z,13.21
2016-03-30T10:37:53.933Z,13.26
2016-03-30T10:38:28.276Z,13.17
2016-03-30T10:41:09.221Z,13.05
2016-03-30T10:41:43.537Z,13.01
2016-03-30T10:43:14.852Z,12.98
2016-03-30T10:43:58.761Z,13.16
2016-03-30T10:44:58.764Z,13.19
2016-03-30T10:47:14.206Z,13.24
2016-03-30T10:48:34.052Z,13.23
2016-03-30T10:49:39.902Z,13.45
2016-03-30T10:50:23.824Z,13.83
2016-03-30T10:51:23.811Z,13.83
2016-03-30T10:52:36.548Z,14
2016-03-30T10:53:23.863Z,13.82
2016-03-30T10:54:36.632Z,13.8
2016-03-30T10:55:23.900Z,13.6
2016-03-30T10:56:49.592Z,13.23
2016-03-30T10:57:23.936Z,13.28
2016-03-30T10:58:24.189Z,13.28
2016-03-30T10:59:24.598Z,13.39
2016-03-30T11:01:26.619Z,13.2
2016-03-30T11:01:39.231Z,13.16
2016-03-30T11:02:39.218Z,13.36
2016-03-30T11:03:45.517Z,13.65
2016-03-30T11:04:45.584Z,13.95
2016-03-30T11:05:52.008Z,14.13
2016-03-30T11:06:58.526Z,14.08
2016-03-30T11:07:39.325Z,14.04
2016-03-30T11:08:39.391Z,14.19
2016-03-30T11:09:39.393Z,14.2
2016-03-30T11:10:45.661Z,13.98
2016-03-30T11:11:39.430Z,13.82
2016-03-30T11:12:58.652Z,13.86
2016-03-30T11:13:52.294Z,13.68
2016-03-30T11:15:05.157Z,13.47
2016-03-30T11:15:58.737Z,13.4
2016-03-30T11:17:14.022Z,12.9
2016-03-30T11:17:42.727Z,12.81
2016-03-30T11:18:42.871Z,12.51
2016-03-30T11:20:02.045Z,12.29
2016-03-30T11:20:58.657Z,12.32
2016-03-30T11:22:11.473Z,12.3
2016-03-30T11:22:58.772Z,12.43
2016-03-30T11:24:17.946Z,12.58
2016-03-30T11:25:01.840Z,12.65
2016-03-30T11:26:01.859Z,12.7
2016-03-30T11:27:33.298Z,12.78
2016-03-30T11:28:14.629Z,12.72
2016-03-30T11:29:02.023Z,12.93
2016-03-30T11:30:21.244Z,13.16
2016-03-30T11:31:02.122Z,13.54
2016-03-30T11:32:27.687Z,14.11
2016-03-30T11:33:08.362Z,14.28
2016-03-30T11:34:02.114Z,14.38
2016-03-30T11:35:02.289Z,14.48
2016-03-30T11:36:02.119Z,14.51
2016-03-30T11:37:02.247Z,14.38
2016-03-30T11:38:08.594Z,14.44
2016-03-30T11:39:02.222Z,14.55
2016-03-30T11:40:08.631Z,14.82
2016-03-30T11:41:02.195Z,14.66
2016-03-30T11:42:02.214Z,14.55
2016-03-30T11:43:02.232Z,14.37
2016-03-30T11:44:02.282Z,14.36
2016-03-30T11:45:15.050Z,14.2
2016-03-30T11:46:08.584Z,14.28
2016-03-30T11:47:21.524Z,14.38
2016-03-30T11:48:02.385Z,14.45
2016-03-30T11:49:33.654Z,14.38
2016-03-30T11:50:12.219Z,14.12
2016-03-30T11:51:43.474Z,13.67
2016-03-30T11:52:15.256Z,13.4
2016-03-30T11:54:30.543Z,12.98
2016-03-30T11:55:30.530Z,12.94
2016-03-30T11:56:36.330Z,13.08
2016-03-30T11:57:30.598Z,13.3
2016-03-30T11:58:30.787Z,13.58
2016-03-30T11:59:37.104Z,13.87
2016-03-30T12:00:30.621Z,13.86
2016-03-30T12:01:30.671Z,14.2
2016-03-30T12:02:32.673Z,14.41
2016-03-30T12:03:32.114Z,14.51
2016-03-30T12:04:43.464Z,14.85
2016-03-30T12:05:49.950Z,15.14
2016-03-30T12:06:30.747Z,15.35
2016-03-30T12:07:31.030Z,15.37
2016-03-30T12:08:43.396Z,15.33
2016-03-30T12:09:30.838Z,15.12
2016-03-30T12:10:30.840Z,14.97
2016-03-30T12:11:31.749Z,14.67
2016-03-30T12:12:50.098Z,14.41
2016-03-30T12:13:43.662Z,14.49
2016-03-30T12:14:30.990Z,14.36
2016-03-30T12:15:50.434Z,14.25
2016-03-30T12:16:30.996Z,14.23
2016-03-30T12:18:02.470Z,14.13
2016-03-30T12:18:43.802Z,13.95
2016-03-30T12:19:31.084Z,13.75
2016-03-30T12:20:56.776Z,13.57
2016-03-30T12:21:43.841Z,13.57
2016-03-30T12:23:02.484Z,13.55
2016-03-30T12:23:31.219Z,13.5
2016-03-30T12:24:31.206Z,13.61
2016-03-30T12:25:31.209Z,13.65
2016-03-30T12:26:31.930Z,13.83
2016-03-30T12:27:43.982Z,13.97
2016-03-30T12:28:31.778Z,14.05
2016-03-30T12:29:50.488Z,13.94
2016-03-30T12:30:44.069Z,13.7
2016-03-30T12:31:31.334Z,13.4
2016-03-30T12:32:31.383Z,13.26
2016-03-30T12:33:37.636Z,13.12
2016-03-30T12:34:31.405Z,12.9
2016-03-30T12:35:31.454Z,13.01
2016-03-30T12:36:31.441Z,12.95
2016-03-30T12:37:31.662Z,12.94
2016-03-30T12:38:31.541Z,12.91
2016-03-30T12:39:37.793Z,12.8
2016-03-30T12:40:31.733Z,12.8
2016-03-30T12:41:37.829Z,12.81
2016-03-30T12:42:38.082Z,12.81
2016-03-30T12:43:31.601Z,12.84
2016-03-30T12:44:51.153Z,12.87
2016-03-30T12:45:38.106Z,12.73
2016-03-30T12:47:43.942Z,12.3
2016-03-30T12:48:09.223Z,12.29
2016-03-30T12:48:56.554Z,12.26
2016-03-30T12:49:56.792Z,12.11
2016-03-30T12:51:02.825Z,11.93
2016-03-30T12:51:56.578Z,11.77
2016-03-30T12:53:15.800Z,11.58
2016-03-30T12:54:02.880Z,11.58
2016-03-30T12:54:56.695Z,11.59
2016-03-30T12:55:56.651Z,11.76
2016-03-30T12:57:02.935Z,11.97
2016-03-30T12:57:56.703Z,12.29
2016-03-30T12:59:15.941Z,12.48
2016-03-30T12:59:56.755Z,12.43
2016-03-30T13:01:22.586Z,12.8
2016-03-30T13:02:04.480Z,12.84
2016-03-30T13:03:28.108Z,13.2
2016-03-30T13:04:06.360Z,13.19
2016-03-30T13:05:32.066Z,13.27
2016-03-30T13:06:15.975Z,13.19
2016-03-30T13:07:35.212Z,13.19
2016-03-30T13:08:19.496Z,13.2
2016-03-30T13:09:44.845Z,13.2
2016-03-30T13:10:19.782Z,13.26
2016-03-30T13:11:50.522Z,13.21
2016-03-30T13:12:34.616Z,13.09
2016-03-30T13:13:34.462Z,12.4
2016-03-30T13:14:34.466Z,11.45
2016-03-30T13:15:34.499Z,10.67
2016-03-30T13:16:47.379Z,10.17
2016-03-30T13:17:34.723Z,9.94
2016-03-30T13:18:53.745Z,9.87
2016-03-30T13:19:34.588Z,9.67
2016-03-30T13:20:53.812Z,9.56
2016-03-30T13:21:34.625Z,9.45
2016-03-30T13:23:05.959Z,9.4
2016-03-30T13:23:47.398Z,9.31
2016-03-30T13:24:34.679Z,9.44
2016-03-30T13:25:53.700Z,9.4
2016-03-30T13:26:34.763Z,9.42
2016-03-30T13:27:34.750Z,9.49
2016-03-30T13:28:34.784Z,9.62
2016-03-30T13:29:34.833Z,9.54
2016-03-30T13:30:34.821Z,9.8
2016-03-30T13:31:41.089Z,9.88
2016-03-30T13:32:34.841Z,9.81
2016-03-30T13:33:54.067Z,9.85
2016-03-30T13:34:34.879Z,9.91
2016-03-30T13:35:34.928Z,9.84
2016-03-30T13:36:47.699Z,9.95
2016-03-30T13:37:41.199Z,10.07
2016-03-30T13:38:54.157Z,10.34
2016-03-30T13:39:34.969Z,10.41
2016-03-30T13:41:37.616Z,10.77
2016-03-30T13:42:15.915Z,10.87
2016-03-30T13:42:50.247Z,10.95
2016-03-30T13:45:31.111Z,11.49
2016-03-30T13:46:05.488Z,11.56
2016-03-30T13:48:20.665Z,11.8
2016-03-30T13:49:20.685Z,11.95
2016-03-30T13:50:26.968Z,11.8
2016-03-30T13:51:27.190Z,11.91
2016-03-30T13:52:33.489Z,11.74
2016-03-30T13:53:39.962Z,11.8
2016-03-30T13:54:39.995Z,11.73
2016-03-30T13:55:39.998Z,11.51
2016-03-30T13:56:46.484Z,11.49
2016-03-30T13:57:24.784Z,11.48
2016-03-30T13:59:21.728Z,11.35
2016-03-30T14:00:00.073Z,11.33
2016-03-30T14:01:00.108Z,11.35
2016-03-30T14:02:09.688Z,11.27
2016-03-30T14:03:06.363Z,11.2
2016-03-30T14:03:53.616Z,11.35
2016-03-30T14:04:53.650Z,11.25
2016-03-30T14:06:06.480Z,11.2
2016-03-30T14:07:06.420Z,11.27
2016-03-30T14:08:12.986Z,11.37
2016-03-30T14:09:22.347Z,11.55
2016-03-30T14:09:56.866Z,11.71
2016-03-30T14:11:28.213Z,11.91
2016-03-30T14:12:03.246Z,11.99
2016-03-30T14:13:28.297Z,12.23
2016-03-30T14:13:56.971Z,12.25
2016-03-30T14:14:57.021Z,12.28
2016-03-30T14:15:57.008Z,12.28
2016-03-30T14:17:03.291Z,12.15
2016-03-30T14:17:57.029Z,12.25
2016-03-30T14:18:57.063Z,12.21
2016-03-30T14:19:57.112Z,12.08
2016-03-30T14:20:57.115Z,12.15
2016-03-30T14:21:57.149Z,12.36
2016-03-30T14:22:57.151Z,12.45
2016-03-30T14:23:57.170Z,12.5
2016-03-30T14:24:57.188Z,12.3
2016-03-30T14:25:57.816Z,12.17
2016-03-30T14:26:57.224Z,11.97
2016-03-30T14:27:57.227Z,11.78
2016-03-30T14:28:57.293Z,11.7